Terminal Aerodrome Forecast
Issued by NWS Tampa Bay Area, FL

Home | Current Version | Previous Version | Text Only | Print | Product List | Glossary On
Versions: 1 2 3 4 5 6 7 8 9 10 11 12 13 14
000
FTUS42 KTBW 281731
TAFSRQ
TAF
KSRQ 281731Z 2818/2918 26010KT P6SM FEW060
     FM290000 30005KT P6SM FEW060
     FM290300 VRB03KT P6SM SKC
     FM291400 15006KT P6SM SKC
     FM291700 21009KT P6SM FEW050=

USA.gov is the U.S. government's official web portal to all federal, state and local government web resources and services.